sensor_id;sensor_type;location;lat;lon;timestamp;temperature;humidity
46458;DHT22;32155;54.076;12.092;2022-07-18T00:52:04;15.50;99.90
46458;DHT22;32155;54.076;12.092;2022-07-18T00:54:30;15.30;99.90
46458;DHT22;32155;54.076;12.092;2022-07-18T00:56:57;15.30;99.90
46458;DHT22;32155;54.076;12.092;2022-07-18T00:59:24;15.30;99.90
46458;DHT22;32155;54.076;12.092;2022-07-18T01:02:13;15.40;99.90
46458;DHT22;32155;54.076;12.092;2022-07-18T01:04:39;15.40;99.90
46458;DHT22;32155;54.076;12.092;2022-07-18T01:07:06;15.30;99.90
46458;DHT22;32155;54.076;12.092;2022-07-18T01:09:32;15.20;99.90
46458;DHT22;32155;54.076;12.092;2022-07-18T01:11:58;15.10;99.90
46458;DHT22;32155;54.076;12.092;2022-07-18T01:14:23;15.00;99.90
46458;DHT22;32155;54.076;12.092;2022-07-18T01:16:49;15.00;99.90
46458;DHT22;32155;54.076;12.092;2022-07-18T01:19:17;14.90;99.90
46458;DHT22;32155;54.076;12.092;2022-07-18T01:21:43;15.10;99.90
46458;DHT22;32155;54.076;12.092;2022-07-18T01:24:11;15.10;99.90
46458;DHT22;32155;54.076;12.092;2022-07-18T01:26:37;15.00;99.90
46458;DHT22;32155;54.076;12.092;2022-07-18T01:29:02;14.90;99.90
46458;DHT22;32155;54.076;12.092;2022-07-18T01:31:28;14.90;99.90
46458;DHT22;32155;54.076;12.092;2022-07-18T01:33:58;14.90;99.90
46458;DHT22;32155;54.076;12.092;2022-07-18T01:36:24;15.10;99.90
46458;DHT22;32155;54.076;12.092;2022-07-18T01:38:50;15.10;99.90
46458;DHT22;32155;54.076;12.092;2022-07-18T01:41:15;15.00;99.90
46458;DHT22;32155;54.076;12.092;2022-07-18T01:43:41;15.00;99.90
46458;DHT22;32155;54.076;12.092;2022-07-18T01:46:08;14.80;99.90
46458;DHT22;32155;54.076;12.092;2022-07-18T01:48:37;14.80;99.90
46458;DHT22;32155;54.076;12.092;2022-07-18T01:51:05;14.80;99.90
46458;DHT22;32155;54.076;12.092;2022-07-18T01:53:35;14.80;99.90
46458;DHT22;32155;54.076;12.092;2022-07-18T01:56:04;14.80;99.90
46458;DHT22;32155;54.076;12.092;2022-07-18T01:58:30;14.80;99.90
46458;DHT22;32155;54.076;12.092;2022-07-18T02:00:55;14.80;99.90
46458;DHT22;32155;54.076;12.092;2022-07-18T02:03:21;14.80;99.90
46458;DHT22;32155;54.076;12.092;2022-07-18T02:05:46;14.80;99.90
46458;DHT22;32155;54.076;12.092;2022-07-18T02:08:13;14.80;99.90
46458;DHT22;32155;54.076;12.092;2022-07-18T02:10:38;14.80;99.90
46458;DHT22;32155;54.076;12.092;2022-07-18T02:13:04;14.70;99.90
46458;DHT22;32155;54.076;12.092;2022-07-18T02:15:32;14.60;99.90
46458;DHT22;32155;54.076;12.092;2022-07-18T02:18:00;14.60;99.90
46458;DHT22;32155;54.076;12.092;2022-07-18T02:20:26;14.60;99.90
46458;DHT22;32155;54.076;12.092;2022-07-18T02:22:51;14.70;99.90
46458;DHT22;32155;54.076;12.092;2022-07-18T02:25:20;14.70;99.90
46458;DHT22;32155;54.076;12.092;2022-07-18T02:27:45;14.70;99.90
46458;DHT22;32155;54.076;12.092;2022-07-18T02:30:13;14.70;99.90
46458;DHT22;32155;54.076;12.092;2022-07-18T02:32:39;14.80;99.90
46458;DHT22;32155;54.076;12.092;2022-07-18T02:35:05;14.90;99.90
46458;DHT22;32155;54.076;12.092;2022-07-18T02:37:34;14.90;99.90
46458;DHT22;32155;54.076;12.092;2022-07-18T02:40:00;14.90;99.90
46458;DHT22;32155;54.076;12.092;2022-07-18T02:42:25;14.90;99.90
46458;DHT22;32155;54.076;12.092;2022-07-18T02:44:51;14.80;99.90
46458;DHT22;32155;54.076;12.092;2022-07-18T02:47:16;14.80;99.90
46458;DHT22;32155;54.076;12.092;2022-07-18T02:49:42;14.70;99.90
46458;DHT22;32155;54.076;12.092;2022-07-18T02:52:09;14.70;99.90
46458;DHT22;32155;54.076;12.092;2022-07-18T02:54:36;14.80;99.90
46458;DHT22;32155;54.076;12.092;2022-07-18T02:57:01;14.70;99.90
46458;DHT22;32155;54.076;12.092;2022-07-18T02:59:27;14.60;99.90
46458;DHT22;32155;54.076;12.092;2022-07-18T03:01:53;14.70;99.90
46458;DHT22;32155;54.076;12.092;2022-07-18T03:04:21;14.70;99.90
46458;DHT22;32155;54.076;12.092;2022-07-18T03:06:47;14.70;99.90
46458;DHT22;32155;54.076;12.092;2022-07-18T03:09:13;14.70;99.90
46458;DHT22;32155;54.076;12.092;2022-07-18T03:11:41;14.60;99.90
46458;DHT22;32155;54.076;12.092;2022-07-18T03:14:07;14.60;99.90
46458;DHT22;32155;54.076;12.092;2022-07-18T03:16:33;14.60;99.90
46458;DHT22;32155;54.076;12.092;2022-07-18T03:18:59;14.60;99.90
46458;DHT22;32155;54.076;12.092;2022-07-18T03:21:24;14.60;99.90
46458;DHT22;32155;54.076;12.092;2022-07-18T03:23:50;14.60;99.90
46458;DHT22;32155;54.076;12.092;2022-07-18T03:26:18;14.50;99.90
46458;DHT22;32155;54.076;12.092;2022-07-18T03:28:43;14.60;99.90
46458;DHT22;32155;54.076;12.092;2022-07-18T03:31:09;14.50;99.90
46458;DHT22;32155;54.076;12.092;2022-07-18T03:33:34;14.60;99.90
46458;DHT22;32155;54.076;12.092;2022-07-18T03:36:00;14.60;99.90
46458;DHT22;32155;54.076;12.092;2022-07-18T03:38:25;14.60;99.90
46458;DHT22;32155;54.076;12.092;2022-07-18T03:40:53;14.60;99.90
46458;DHT22;32155;54.076;12.092;2022-07-18T03:43:21;14.60;99.90
46458;DHT22;32155;54.076;12.092;2022-07-18T03:45:46;14.70;99.90
46458;DHT22;32155;54.076;12.092;2022-07-18T03:48:12;14.70;99.90
46458;DHT22;32155;54.076;12.092;2022-07-18T03:50:38;14.70;99.90
46458;DHT22;32155;54.076;12.092;2022-07-18T03:53:04;14.80;99.90
46458;DHT22;32155;54.076;12.092;2022-07-18T03:55:29;14.80;99.90
46458;DHT22;32155;54.076;12.092;2022-07-18T03:57:55;14.90;99.90
46458;DHT22;32155;54.076;12.092;2022-07-18T04:00:20;14.90;99.90
46458;DHT22;32155;54.076;12.092;2022-07-18T04:02:46;14.90;99.90
46458;DHT22;32155;54.076;12.092;2022-07-18T04:05:12;15.00;99.90
46458;DHT22;32155;54.076;12.092;2022-07-18T04:07:38;15.00;99.90
46458;DHT22;32155;54.076;12.092;2022-07-18T04:10:04;15.00;99.90
46458;DHT22;32155;54.076;12.092;2022-07-18T04:12:30;15.00;99.90
46458;DHT22;32155;54.076;12.092;2022-07-18T04:14:58;15.20;99.90
46458;DHT22;32155;54.076;12.092;2022-07-18T04:17:26;15.20;99.90
46458;DHT22;32155;54.076;12.092;2022-07-18T04:19:52;15.20;99.90
46458;DHT22;32155;54.076;12.092;2022-07-18T04:22:17;15.30;99.90
46458;DHT22;32155;54.076;12.092;2022-07-18T04:24:45;15.30;99.90
46458;DHT22;32155;54.076;12.092;2022-07-18T04:27:11;15.50;99.90
46458;DHT22;32155;54.076;12.092;2022-07-18T04:29:37;15.60;99.90
46458;DHT22;32155;54.076;12.092;2022-07-18T04:32:03;15.60;99.90
46458;DHT22;32155;54.076;12.092;2022-07-18T04:34:28;15.70;99.90
46458;DHT22;32155;54.076;12.092;2022-07-18T04:36:54;15.80;99.90
46458;DHT22;32155;54.076;12.092;2022-07-18T04:39:19;15.80;99.90
46458;DHT22;32155;54.076;12.092;2022-07-18T04:41:45;15.90;99.90
46458;DHT22;32155;54.076;12.092;2022-07-18T04:44:13;16.00;99.90
46458;DHT22;32155;54.076;12.092;2022-07-18T04:46:40;16.00;99.90
46458;DHT22;32155;54.076;12.092;2022-07-18T04:49:09;16.00;99.90
46458;DHT22;32155;54.076;12.092;2022-07-18T04:51:36;16.10;99.90
46458;DHT22;32155;54.076;12.092;2022-07-18T04:54:02;16.20;99.90
46458;DHT22;32155;54.076;12.092;2022-07-18T04:56:27;16.50;99.90
46458;DHT22;32155;54.076;12.092;2022-07-18T04:58:53;16.70;99.90
46458;DHT22;32155;54.076;12.092;2022-07-18T05:01:18;16.90;99.90
46458;DHT22;32155;54.076;12.092;2022-07-18T05:03:44;17.20;99.90
46458;DHT22;32155;54.076;12.092;2022-07-18T05:06:09;17.30;99.90
46458;DHT22;32155;54.076;12.092;2022-07-18T05:08:35;17.50;99.90
46458;DHT22;32155;54.076;12.092;2022-07-18T05:11:00;17.80;99.90
46458;DHT22;32155;54.076;12.092;2022-07-18T05:13:26;17.90;99.90
46458;DHT22;32155;54.076;12.092;2022-07-18T05:15:51;18.00;99.90
46458;DHT22;32155;54.076;12.092;2022-07-18T05:18:19;18.10;99.90
46458;DHT22;32155;54.076;12.092;2022-07-18T05:20:45;18.20;99.90
46458;DHT22;32155;54.076;12.092;2022-07-18T05:23:13;18.20;99.90
46458;DHT22;32155;54.076;12.092;2022-07-18T05:25:41;18.30;99.90
46458;DHT22;32155;54.076;12.092;2022-07-18T05:28:07;18.30;99.90
46458;DHT22;32155;54.076;12.092;2022-07-18T05:30:33;18.30;99.90
46458;DHT22;32155;54.076;12.092;2022-07-18T05:32:58;18.40;99.90
46458;DHT22;32155;54.076;12.092;2022-07-18T05:35:24;18.30;99.90
46458;DHT22;32155;54.076;12.092;2022-07-18T05:37:50;18.30;99.90
46458;DHT22;32155;54.076;12.092;2022-07-18T05:40:15;18.30;99.90
46458;DHT22;32155;54.076;12.092;2022-07-18T05:42:44;18.20;99.90
46458;DHT22;32155;54.076;12.092;2022-07-18T05:45:11;18.30;99.90
46458;DHT22;32155;54.076;12.092;2022-07-18T05:47:39;18.30;99.90
46458;DHT22;32155;54.076;12.092;2022-07-18T05:50:07;18.40;99.90
46458;DHT22;32155;54.076;12.092;2022-07-18T05:52:33;18.50;99.90
46458;DHT22;32155;54.076;12.092;2022-07-18T05:54:59;18.60;99.90
46458;DHT22;32155;54.076;12.092;2022-07-18T05:57:27;18.60;99.90
46458;DHT22;32155;54.076;12.092;2022-07-18T05:59:52;18.70;99.90
46458;DHT22;32155;54.076;12.092;2022-07-18T06:02:25;18.80;99.90
46458;DHT22;32155;54.076;12.092;2022-07-18T06:04:50;19.00;99.90
46458;DHT22;32155;54.076;12.092;2022-07-18T06:07:16;19.20;99.90
46458;DHT22;32155;54.076;12.092;2022-07-18T06:09:41;19.60;99.90
46458;DHT22;32155;54.076;12.092;2022-07-18T06:12:09;19.90;99.90
46458;DHT22;32155;54.076;12.092;2022-07-18T06:14:35;20.50;99.90
46458;DHT22;32155;54.076;12.092;2022-07-18T06:17:01;21.10;99.90
46458;DHT22;32155;54.076;12.092;2022-07-18T06:19:26;21.20;99.90
46458;DHT22;32155;54.076;12.092;2022-07-18T06:21:52;21.20;99.90
46458;DHT22;32155;54.076;12.092;2022-07-18T06:24:17;21.70;99.90
46458;DHT22;32155;54.076;12.092;2022-07-18T06:26:45;22.20;99.90
46458;DHT22;32155;54.076;12.092;2022-07-18T06:29:10;22.70;99.90
46458;DHT22;32155;54.076;12.092;2022-07-18T06:31:36;22.90;99.90
46458;DHT22;32155;54.076;12.092;2022-07-18T06:34:03;22.40;99.90
46458;DHT22;32155;54.076;12.092;2022-07-18T06:36:28;21.80;99.90
46458;DHT22;32155;54.076;12.092;2022-07-18T06:39:12;21.50;99.90
46458;DHT22;32155;54.076;12.092;2022-07-18T06:41:38;21.40;99.90
46458;DHT22;32155;54.076;12.092;2022-07-18T06:44:04;21.30;99.90
46458;DHT22;32155;54.076;12.092;2022-07-18T06:46:30;21.20;99.90
46458;DHT22;32155;54.076;12.092;2022-07-18T06:48:55;21.10;99.90
46458;DHT22;32155;54.076;12.092;2022-07-18T06:51:21;20.90;99.90
46458;DHT22;32155;54.076;12.092;2022-07-18T06:53:49;20.90;99.90
46458;DHT22;32155;54.076;12.092;2022-07-18T06:56:14;20.80;99.90
46458;DHT22;32155;54.076;12.092;2022-07-18T06:58:42;20.80;99.90
46458;DHT22;32155;54.076;12.092;2022-07-18T07:01:14;20.90;99.90
46458;DHT22;32155;54.076;12.092;2022-07-18T07:03:40;21.10;99.90
46458;DHT22;32155;54.076;12.092;2022-07-18T07:06:05;21.20;99.90
46458;DHT22;32155;54.076;12.092;2022-07-18T07:08:31;21.50;99.90
46458;DHT22;32155;54.076;12.092;2022-07-18T07:10:56;21.80;99.90
46458;DHT22;32155;54.076;12.092;2022-07-18T07:13:22;22.20;99.90
46458;DHT22;32155;54.076;12.092;2022-07-18T07:15:50;22.80;99.90
46458;DHT22;32155;54.076;12.092;2022-07-18T07:18:15;23.70;99.90
46458;DHT22;32155;54.076;12.092;2022-07-18T07:20:41;23.90;99.90
46458;DHT22;32155;54.076;12.092;2022-07-18T07:23:06;24.00;99.90
46458;DHT22;32155;54.076;12.092;2022-07-18T07:25:37;24.00;99.90
46458;DHT22;32155;54.076;12.092;2022-07-18T07:28:03;24.10;99.90
46458;DHT22;32155;54.076;12.092;2022-07-18T07:30:30;24.20;99.90
46458;DHT22;32155;54.076;12.092;2022-07-18T07:32:55;24.80;99.90
46458;DHT22;32155;54.076;12.092;2022-07-18T07:35:21;25.20;99.90
46458;DHT22;32155;54.076;12.092;2022-07-18T07:37:48;25.30;99.90
46458;DHT22;32155;54.076;12.092;2022-07-18T07:40:14;25.10;99.90
46458;DHT22;32155;54.076;12.092;2022-07-18T07:42:40;24.50;99.90
46458;DHT22;32155;54.076;12.092;2022-07-18T07:45:06;24.10;99.90
46458;DHT22;32155;54.076;12.092;2022-07-18T07:47:31;23.50;99.90
46458;DHT22;32155;54.076;12.092;2022-07-18T07:49:57;23.10;99.90
46458;DHT22;32155;54.076;12.092;2022-07-18T07:52:23;22.80;99.90
46458;DHT22;32155;54.076;12.092;2022-07-18T07:54:52;22.70;99.90
46458;DHT22;32155;54.076;12.092;2022-07-18T07:57:17;22.50;99.90
46458;DHT22;32155;54.076;12.092;2022-07-18T07:59:43;22.30;99.90
46458;DHT22;32155;54.076;12.092;2022-07-18T08:02:09;22.20;99.90
46458;DHT22;32155;54.076;12.092;2022-07-18T08:04:34;22.10;99.90
46458;DHT22;32155;54.076;12.092;2022-07-18T08:07:00;22.10;99.90
46458;DHT22;32155;54.076;12.092;2022-07-18T08:09:26;22.10;99.90
46458;DHT22;32155;54.076;12.092;2022-07-18T08:11:54;22.10;99.90
46458;DHT22;32155;54.076;12.092;2022-07-18T08:14:19;22.00;99.90
46458;DHT22;32155;54.076;12.092;2022-07-18T08:16:45;22.00;99.90
46458;DHT22;32155;54.076;12.092;2022-07-18T08:19:11;21.90;99.90
46458;DHT22;32155;54.076;12.092;2022-07-18T08:21:36;21.90;99.90
46458;DHT22;32155;54.076;12.092;2022-07-18T08:24:02;22.00;99.90
46458;DHT22;32155;54.076;12.092;2022-07-18T08:26:27;22.20;99.90
46458;DHT22;32155;54.076;12.092;2022-07-18T08:28:53;22.10;99.90
46458;DHT22;32155;54.076;12.092;2022-07-18T08:31:21;22.00;99.90
46458;DHT22;32155;54.076;12.092;2022-07-18T08:33:47;22.10;99.90
46458;DHT22;32155;54.076;12.092;2022-07-18T08:36:14;22.10;99.90
46458;DHT22;32155;54.076;12.092;2022-07-18T08:38:40;22.10;99.90
46458;DHT22;32155;54.076;12.092;2022-07-18T08:41:05;22.00;99.90
46458;DHT22;32155;54.076;12.092;2022-07-18T08:43:31;21.90;99.90
46458;DHT22;32155;54.076;12.092;2022-07-18T08:46:01;21.80;99.90
46458;DHT22;32155;54.076;12.092;2022-07-18T08:48:27;21.80;99.90
46458;DHT22;32155;54.076;12.092;2022-07-18T08:50:52;21.80;99.90
46458;DHT22;32155;54.076;12.092;2022-07-18T08:53:18;21.70;99.90
46458;DHT22;32155;54.076;12.092;2022-07-18T08:55:44;21.70;99.90
46458;DHT22;32155;54.076;12.092;2022-07-18T08:58:10;21.90;99.90
46458;DHT22;32155;54.076;12.092;2022-07-18T09:00:37;21.80;99.90
46458;DHT22;32155;54.076;12.092;2022-07-18T09:03:03;21.80;99.90
46458;DHT22;32155;54.076;12.092;2022-07-18T09:05:29;21.80;99.90
46458;DHT22;32155;54.076;12.092;2022-07-18T09:13:14;21.90;99.90
46458;DHT22;32155;54.076;12.092;2022-07-18T09:18:42;21.90;99.90
46458;DHT22;32155;54.076;12.092;2022-07-18T09:23:34;22.50;99.90
46458;DHT22;32155;54.076;12.092;2022-07-18T09:26:00;22.40;99.90
46458;DHT22;32155;54.076;12.092;2022-07-18T09:28:30;22.50;99.90
46458;DHT22;32155;54.076;12.092;2022-07-18T09:31:16;22.40;99.90
46458;DHT22;32155;54.076;12.092;2022-07-18T09:33:50;22.40;99.90
46458;DHT22;32155;54.076;12.092;2022-07-18T09:36:16;22.40;99.90
46458;DHT22;32155;54.076;12.092;2022-07-18T09:38:41;22.30;99.90
46458;DHT22;32155;54.076;12.092;2022-07-18T09:41:07;22.10;99.90
46458;DHT22;32155;54.076;12.092;2022-07-18T09:43:36;22.00;99.90
46458;DHT22;32155;54.076;12.092;2022-07-18T09:46:03;21.90;99.90
46458;DHT22;32155;54.076;12.092;2022-07-18T09:48:29;21.80;99.90
46458;DHT22;32155;54.076;12.092;2022-07-18T09:51:01;21.90;99.90
46458;DHT22;32155;54.076;12.092;2022-07-18T09:55:57;21.90;99.90
46458;DHT22;32155;54.076;12.092;2022-07-18T09:58:27;22.10;99.90
46458;DHT22;32155;54.076;12.092;2022-07-18T10:00:56;22.10;99.90
46458;DHT22;32155;54.076;12.092;2022-07-18T10:03:22;22.20;99.90
46458;DHT22;32155;54.076;12.092;2022-07-18T10:05:48;22.20;99.90
46458;DHT22;32155;54.076;12.092;2022-07-18T10:08:18;22.10;99.90
46458;DHT22;32155;54.076;12.092;2022-07-18T10:10:45;22.20;99.90
46458;DHT22;32155;54.076;12.092;2022-07-18T10:13:11;22.30;99.90
46458;DHT22;32155;54.076;12.092;2022-07-18T10:15:40;22.20;99.90
46458;DHT22;32155;54.076;12.092;2022-07-18T10:18:06;22.20;99.90
46458;DHT22;32155;54.076;12.092;2022-07-18T10:20:39;22.20;99.90
46458;DHT22;32155;54.076;12.092;2022-07-18T10:23:09;22.20;99.90
46458;DHT22;32155;54.076;12.092;2022-07-18T10:25:36;22.30;99.90
46458;DHT22;32155;54.076;12.092;2022-07-18T10:32:56;22.40;99.90
46458;DHT22;32155;54.076;12.092;2022-07-18T10:35:57;22.40;99.90
46458;DHT22;32155;54.076;12.092;2022-07-18T10:38:20;22.40;99.90
46458;DHT22;32155;54.076;12.092;2022-07-18T10:41:05;22.40;99.90
46458;DHT22;32155;54.076;12.092;2022-07-18T10:43:31;22.50;99.90
46458;DHT22;32155;54.076;12.092;2022-07-18T10:45:57;22.50;99.90
46458;DHT22;32155;54.076;12.092;2022-07-18T10:51:08;22.50;99.90
46458;DHT22;32155;54.076;12.092;2022-07-18T10:56:20;22.80;99.90
46458;DHT22;32155;54.076;12.092;2022-07-18T10:58:48;23.10;99.90
46458;DHT22;32155;54.076;12.092;2022-07-18T11:01:16;23.30;99.90
46458;DHT22;32155;54.076;12.092;2022-07-18T11:03:42;23.70;99.90
46458;DHT22;32155;54.076;12.092;2022-07-18T11:06:10;24.10;99.90
46458;DHT22;32155;54.076;12.092;2022-07-18T11:08:36;24.60;99.90
46458;DHT22;32155;54.076;12.092;2022-07-18T11:23:46;27.50;99.90
46458;DHT22;32155;54.076;12.092;2022-07-18T11:26:15;28.30;99.90
46458;DHT22;32155;54.076;12.092;2022-07-18T11:28:44;28.90;99.90
46458;DHT22;32155;54.076;12.092;2022-07-18T11:31:11;28.90;99.90
46458;DHT22;32155;54.076;12.092;2022-07-18T11:33:38;28.90;99.90
46458;DHT22;32155;54.076;12.092;2022-07-18T11:36:13;29.10;99.90
46458;DHT22;32155;54.076;12.092;2022-07-18T11:38:41;29.90;99.90
46458;DHT22;32155;54.076;12.092;2022-07-18T11:41:10;29.50;99.90
46458;DHT22;32155;54.076;12.092;2022-07-18T11:43:36;28.90;99.90
46458;DHT22;32155;54.076;12.092;2022-07-18T11:46:09;28.30;99.90
46458;DHT22;32155;54.076;12.092;2022-07-18T11:48:35;29.40;99.90
46458;DHT22;32155;54.076;12.092;2022-07-18T11:51:01;31.20;99.90
46458;DHT22;32155;54.076;12.092;2022-07-18T11:53:30;32.40;99.90
46458;DHT22;32155;54.076;12.092;2022-07-18T11:55:55;32.80;99.90
46458;DHT22;32155;54.076;12.092;2022-07-18T11:58:21;32.30;99.00
46458;DHT22;32155;54.076;12.092;2022-07-18T12:00:47;31.80;99.40
46458;DHT22;32155;54.076;12.092;2022-07-18T12:05:44;30.40;99.90
46458;DHT22;32155;54.076;12.092;2022-07-18T12:13:42;29.90;99.90
46458;DHT22;32155;54.076;12.092;2022-07-18T12:16:20;29.20;99.90
46458;DHT22;32155;54.076;12.092;2022-07-18T12:18:49;28.70;99.90
46458;DHT22;32155;54.076;12.092;2022-07-18T12:21:15;28.30;99.90
46458;DHT22;32155;54.076;12.092;2022-07-18T12:23:41;28.70;99.90
46458;DHT22;32155;54.076;12.092;2022-07-18T12:26:06;28.00;99.90
46458;DHT22;32155;54.076;12.092;2022-07-18T12:28:32;27.30;99.90
46458;DHT22;32155;54.076;12.092;2022-07-18T12:30:57;27.00;99.90
46458;DHT22;32155;54.076;12.092;2022-07-18T12:33:23;26.70;99.90
46458;DHT22;32155;54.076;12.092;2022-07-18T12:35:56;26.70;99.90
46458;DHT22;32155;54.076;12.092;2022-07-18T12:38:22;26.80;99.90
46458;DHT22;32155;54.076;12.092;2022-07-18T12:43:27;26.60;99.90
46458;DHT22;32155;54.076;12.092;2022-07-18T12:45:53;26.70;99.90
46458;DHT22;32155;54.076;12.092;2022-07-18T12:48:19;27.00;99.90
